createdAt,value
2019-03-05T00:01:00.998Z,7.67
2019-03-05T00:03:30.173Z,10.30
2019-03-05T00:05:58.863Z,7.70
2019-03-05T00:08:27.569Z,6.67
2019-03-05T00:10:56.591Z,8.40
2019-03-05T00:13:25.224Z,9.50
2019-03-05T00:15:55.539Z,11.30
2019-03-05T00:18:24.333Z,6.50
2019-03-05T00:20:53.018Z,10.47
2019-03-05T00:23:39.924Z,7.47
2019-03-05T00:26:08.618Z,6.63
2019-03-05T00:28:43.335Z,4.80
2019-03-05T00:31:21.442Z,5.83
2019-03-05T00:33:53.321Z,6.93
2019-03-05T00:36:31.205Z,6.90
2019-03-05T00:39:09.105Z,6.03
2019-03-05T00:41:43.623Z,6.20
2019-03-05T00:44:27.766Z,6.70
2019-03-05T00:47:05.053Z,6.90
2019-03-05T00:49:52.175Z,5.63
2019-03-05T00:52:23.927Z,4.67
2019-03-05T00:55:11.136Z,3.67
2019-03-05T00:57:51.711Z,5.23
2019-03-05T01:00:38.724Z,5.87
2019-03-05T01:03:44.202Z,6.50
2019-03-05T01:06:26.257Z,4.40
2019-03-05T01:08:56.593Z,5.33
2019-03-05T01:11:25.587Z,4.30
2019-03-05T01:13:54.377Z,3.63
2019-03-05T01:16:24.805Z,5.73
2019-03-05T01:18:53.688Z,5.93
2019-03-05T01:21:22.358Z,3.53
2019-03-05T01:23:51.039Z,4.63
2019-03-05T01:26:19.942Z,5.63
2019-03-05T01:28:48.487Z,4.77
2019-03-05T01:31:34.717Z,3.93
2019-03-05T01:34:07.321Z,5.00
2019-03-05T01:36:46.633Z,4.37
2019-03-05T01:39:33.235Z,2.93
2019-03-05T01:42:01.816Z,4.97
2019-03-05T01:44:30.400Z,3.87
2019-03-05T01:46:59.087Z,3.97
2019-03-05T01:49:27.624Z,3.53
2019-03-05T01:51:56.451Z,4.50
2019-03-05T01:54:25.139Z,3.57
2019-03-05T01:56:53.821Z,4.50
2019-03-05T01:59:22.400Z,3.73
2019-03-05T02:01:51.106Z,3.40
2019-03-05T02:04:19.773Z,5.20
2019-03-05T02:06:48.443Z,3.40
2019-03-05T02:09:17.033Z,4.17
2019-03-05T02:11:45.821Z,2.93
2019-03-05T02:14:14.509Z,3.63
2019-03-05T02:16:43.400Z,3.40
2019-03-05T02:19:34.510Z,3.53
2019-03-05T02:22:03.404Z,3.70
2019-03-05T02:25:01.285Z,3.43
2019-03-05T02:27:54.329Z,3.03
2019-03-05T02:30:47.692Z,4.07
2019-03-05T02:33:28.669Z,3.93
2019-03-05T02:36:20.291Z,3.40
2019-03-05T02:39:11.815Z,2.17
2019-03-05T02:41:46.647Z,2.17
2019-03-05T02:44:27.620Z,2.40
2019-03-05T02:47:02.327Z,2.03
2019-03-05T02:49:40.022Z,1.87
2019-03-05T02:52:17.632Z,3.10
2019-03-05T02:54:52.427Z,2.67
2019-03-05T02:57:20.105Z,2.53
2019-03-05T02:59:48.792Z,3.13
2019-03-05T03:02:24.853Z,3.93
2019-03-05T03:05:13.195Z,3.43
2019-03-05T03:07:41.773Z,2.97
2019-03-05T03:10:22.026Z,2.60
2019-03-05T03:12:50.713Z,2.07
2019-03-05T03:15:19.398Z,2.30
2019-03-05T03:17:48.082Z,4.27
2019-03-05T03:20:16.938Z,2.70
2019-03-05T03:22:45.656Z,2.30
2019-03-05T03:25:15.978Z,4.00
2019-03-05T03:27:44.563Z,2.97
2019-03-05T03:30:15.297Z,3.03
2019-03-05T03:32:43.971Z,3.10
2019-03-05T03:35:14.277Z,1.10
2019-03-05T03:37:42.748Z,2.53
2019-03-05T03:40:14.330Z,2.80
2019-03-05T03:42:42.946Z,3.50
2019-03-05T03:45:14.186Z,2.20
2019-03-05T03:47:42.844Z,2.60
2019-03-05T03:50:11.436Z,1.40
2019-03-05T03:52:40.009Z,3.03
2019-03-05T03:55:11.326Z,2.83
2019-03-05T03:57:39.948Z,2.80
2019-03-05T04:00:27.362Z,2.80
2019-03-05T04:02:47.789Z,2.00
2019-03-05T04:05:16.544Z,3.47
2019-03-05T04:07:45.230Z,2.70
2019-03-05T04:10:15.346Z,1.57
2019-03-05T04:12:43.924Z,2.93
2019-03-05T04:15:14.638Z,2.60
2019-03-05T04:17:43.140Z,1.37
2019-03-05T04:20:14.339Z,3.30
2019-03-05T04:22:42.962Z,2.23
2019-03-05T04:25:11.547Z,2.40
2019-03-05T04:27:40.228Z,2.10
2019-03-05T04:30:11.678Z,1.17
2019-03-05T04:32:40.365Z,2.67
2019-03-05T04:35:11.695Z,1.90
2019-03-05T04:37:40.398Z,2.57
2019-03-05T04:40:10.924Z,4.10
2019-03-05T04:42:39.713Z,3.03
2019-03-05T04:45:27.215Z,4.23
2019-03-05T04:47:55.813Z,2.50
2019-03-05T04:50:25.931Z,3.10
2019-03-05T04:52:54.517Z,1.90
2019-03-05T04:55:23.238Z,2.07
2019-03-05T04:57:51.884Z,2.17
2019-03-05T05:00:20.568Z,1.93
2019-03-05T05:02:49.150Z,1.37
2019-03-05T05:05:17.834Z,2.60
2019-03-05T05:07:46.418Z,2.33
2019-03-05T05:10:14.998Z,1.80
2019-03-05T05:12:43.583Z,1.07
2019-03-05T05:15:30.401Z,3.13
2019-03-05T05:17:58.977Z,1.40
2019-03-05T05:20:27.767Z,2.97
2019-03-05T05:22:56.448Z,2.30
2019-03-05T05:25:25.143Z,1.87
2019-03-05T05:27:53.664Z,2.67
2019-03-05T05:30:33.975Z,1.53
2019-03-05T05:33:02.771Z,3.80
2019-03-05T05:35:31.436Z,2.27
2019-03-05T05:38:00.124Z,2.33
2019-03-05T05:40:40.894Z,2.30
2019-03-05T05:43:12.645Z,1.60
2019-03-05T05:45:49.524Z,3.57
2019-03-05T05:48:18.104Z,1.67
2019-03-05T05:50:46.797Z,2.77
2019-03-05T05:53:15.269Z,3.53
2019-03-05T05:55:43.856Z,1.67
2019-03-05T05:58:12.431Z,4.83
2019-03-05T06:00:42.764Z,4.73
2019-03-05T06:03:11.444Z,3.47
2019-03-05T06:05:39.917Z,1.80
2019-03-05T06:08:08.609Z,4.30
2019-03-05T06:10:37.294Z,1.03
2019-03-05T06:13:05.983Z,2.27
2019-03-05T06:15:34.555Z,2.23
2019-03-05T06:18:03.304Z,1.53
2019-03-05T06:20:31.923Z,2.07
2019-03-05T06:23:00.437Z,3.33
2019-03-05T06:25:28.985Z,1.60
2019-03-05T06:27:57.570Z,1.17
2019-03-05T06:30:34.341Z,2.73
2019-03-05T06:33:03.026Z,1.50
2019-03-05T06:35:31.607Z,2.83
2019-03-05T06:38:00.092Z,1.47
2019-03-05T06:40:32.549Z,1.17
2019-03-05T06:43:01.145Z,1.60
2019-03-05T06:45:29.829Z,2.00
2019-03-05T06:47:58.616Z,2.53
2019-03-05T06:50:28.377Z,2.77
2019-03-05T06:52:57.021Z,1.47
2019-03-05T06:55:25.702Z,2.90
2019-03-05T06:57:54.493Z,3.33
2019-03-05T07:00:34.951Z,2.60
2019-03-05T07:03:04.991Z,0.70
2019-03-05T07:06:10.523Z,1.83
2019-03-05T07:08:42.372Z,3.10
2019-03-05T07:11:23.503Z,3.13
2019-03-05T07:13:55.198Z,3.00
2019-03-05T07:16:30.205Z,2.27
2019-03-05T07:19:00.459Z,1.77
2019-03-05T07:21:44.083Z,2.67
2019-03-05T07:24:24.837Z,1.73
2019-03-05T07:26:53.540Z,2.47
2019-03-05T07:29:22.563Z,2.17
2019-03-05T07:31:51.230Z,1.37
2019-03-05T07:34:24.255Z,2.53
2019-03-05T07:36:52.839Z,1.20
2019-03-05T07:39:23.261Z,2.47
2019-03-05T07:41:51.894Z,2.03
2019-03-05T07:44:20.477Z,3.80
2019-03-05T07:46:49.008Z,3.63
2019-03-05T07:49:17.550Z,5.33
2019-03-05T07:51:46.191Z,6.47
2019-03-05T07:54:14.906Z,10.20
2019-03-05T07:56:43.589Z,10.57
2019-03-05T07:59:12.382Z,16.57
2019-03-05T08:01:40.961Z,17.90
2019-03-05T08:04:09.653Z,23.90
2019-03-05T08:06:38.223Z,22.87
2019-03-05T08:09:37.924Z,20.20
2019-03-05T08:12:24.748Z,30.83
2019-03-05T08:15:11.554Z,27.67
2019-03-05T08:17:40.242Z,25.67
2019-03-05T08:20:11.324Z,27.10
2019-03-05T08:22:39.852Z,29.40
2019-03-05T08:25:11.077Z,18.27
2019-03-05T08:27:39.585Z,18.10
2019-03-05T08:30:14.845Z,15.60
2019-03-05T08:32:44.530Z,47.73
2019-03-05T08:35:13.115Z,13.17
2019-03-05T08:37:41.934Z,13.40
2019-03-05T08:40:16.320Z,11.03
2019-03-05T08:42:44.903Z,10.80
2019-03-05T08:45:14.908Z,19.30
2019-03-05T08:47:43.609Z,13.10
2019-03-05T08:50:15.667Z,8.00
2019-03-05T08:52:44.655Z,7.60
2019-03-05T08:55:13.429Z,7.30
2019-03-05T08:57:42.546Z,7.10
2019-03-05T09:00:19.505Z,5.10
2019-03-05T09:02:49.282Z,11.60
2019-03-05T09:05:19.155Z,6.53
2019-03-05T09:07:50.220Z,5.17
2019-03-05T09:10:21.429Z,7.63
2019-03-05T09:12:50.122Z,3.80
2019-03-05T09:15:19.856Z,7.67
2019-03-05T09:17:48.617Z,4.33
2019-03-05T09:20:20.390Z,4.37
2019-03-05T09:22:49.156Z,6.73
2019-03-05T09:25:18.635Z,3.03
2019-03-05T09:27:47.223Z,5.13
2019-03-05T09:30:20.311Z,4.43
2019-03-05T09:32:49.318Z,5.83
2019-03-05T09:35:18.102Z,5.53
2019-03-05T09:37:46.988Z,5.37
2019-03-05T09:40:18.254Z,5.33
2019-03-05T09:42:46.818Z,4.40
2019-03-05T09:45:17.412Z,4.70
2019-03-05T09:47:46.027Z,7.23
2019-03-05T09:50:19.213Z,6.60
2019-03-05T09:52:54.874Z,2.77
2019-03-05T09:55:25.609Z,3.57
2019-03-05T09:58:07.029Z,3.07
2019-03-05T10:00:27.384Z,4.73
2019-03-05T10:02:56.263Z,2.73
2019-03-05T10:05:24.841Z,3.07
2019-03-05T10:07:53.630Z,4.00
2019-03-05T10:10:27.128Z,3.20
2019-03-05T10:12:59.193Z,2.97
2019-03-05T10:15:27.096Z,2.03
2019-03-05T10:17:55.624Z,3.87
2019-03-05T10:20:25.809Z,1.67
2019-03-05T10:22:54.438Z,4.20
2019-03-05T10:25:26.298Z,2.33
2019-03-05T10:27:55.579Z,3.13
2019-03-05T10:30:32.169Z,3.87
2019-03-05T10:33:02.390Z,2.73
2019-03-05T10:35:30.974Z,3.60
2019-03-05T10:38:00.786Z,1.70
2019-03-05T10:40:36.120Z,2.00
2019-03-05T10:43:08.772Z,3.13
2019-03-05T10:45:36.971Z,2.90
2019-03-05T10:48:05.554Z,2.43
2019-03-05T10:50:34.141Z,4.10
2019-03-05T10:53:02.717Z,3.83
2019-03-05T10:55:31.611Z,2.63
2019-03-05T10:58:00.199Z,3.33
2019-03-05T11:00:38.297Z,2.30
2019-03-05T11:03:07.300Z,2.90
2019-03-05T11:05:39.149Z,3.57
2019-03-05T11:08:08.343Z,3.73
2019-03-05T11:10:37.438Z,2.23
2019-03-05T11:13:06.026Z,3.13
2019-03-05T11:15:35.288Z,2.00
2019-03-05T11:18:06.461Z,3.47
2019-03-05T11:20:35.246Z,5.10
2019-03-05T11:23:04.147Z,4.57
2019-03-05T11:25:32.719Z,3.40
2019-03-05T11:28:01.505Z,4.53
2019-03-05T11:30:36.466Z,5.70
2019-03-05T11:33:05.533Z,3.90
2019-03-05T11:35:34.718Z,5.03
2019-03-05T11:38:03.416Z,5.33
2019-03-05T11:40:32.199Z,5.70
2019-03-05T11:43:07.336Z,5.67
2019-03-05T11:45:35.927Z,6.07
2019-03-05T11:48:04.499Z,5.67
2019-03-05T11:50:33.083Z,5.23
2019-03-05T11:53:01.765Z,5.27
2019-03-05T11:55:30.703Z,5.57
2019-03-05T11:57:59.546Z,7.17
2019-03-05T12:00:37.558Z,7.83
2019-03-05T12:03:07.092Z,4.27
2019-03-05T12:05:35.942Z,5.23
2019-03-05T12:08:04.572Z,6.13
2019-03-05T12:10:33.315Z,6.03
2019-03-05T12:13:01.997Z,6.80
2019-03-05T12:15:38.875Z,4.93
2019-03-05T12:18:07.614Z,5.67
2019-03-05T12:20:36.345Z,5.83
2019-03-05T12:23:06.647Z,5.77
2019-03-05T12:25:36.013Z,6.10
2019-03-05T12:28:10.286Z,6.53
2019-03-05T12:30:36.400Z,4.77
2019-03-05T12:33:06.574Z,5.73
2019-03-05T12:35:35.612Z,4.67
2019-03-05T12:38:04.503Z,5.80
2019-03-05T12:40:33.199Z,4.30
2019-03-05T12:43:01.967Z,4.10
2019-03-05T12:45:30.566Z,5.03
2019-03-05T12:47:59.350Z,5.00
2019-03-05T12:50:29.678Z,3.13
2019-03-05T12:52:58.454Z,4.43
2019-03-05T12:55:27.037Z,5.17
2019-03-05T12:57:55.720Z,4.30
2019-03-05T13:00:30.959Z,3.33
2019-03-05T13:02:59.543Z,4.17
2019-03-05T13:05:28.020Z,5.13
2019-03-05T13:07:57.725Z,4.07
2019-03-05T13:10:27.756Z,3.67
2019-03-05T13:12:56.328Z,4.53
2019-03-05T13:15:27.470Z,3.80
2019-03-05T13:17:56.262Z,2.90
2019-03-05T13:20:26.232Z,6.53
2019-03-05T13:22:55.266Z,9.93
2019-03-05T13:25:24.310Z,3.63
2019-03-05T13:27:57.525Z,6.50
2019-03-05T13:30:27.027Z,4.60
2019-03-05T13:32:59.095Z,8.37
2019-03-05T13:35:30.405Z,9.07
2019-03-05T13:38:03.135Z,4.97
2019-03-05T13:40:34.251Z,5.27
2019-03-05T13:43:01.637Z,4.97
2019-03-05T13:45:30.322Z,4.33
2019-03-05T13:48:19.809Z,4.80
2019-03-05T13:51:09.886Z,5.57
2019-03-05T13:54:01.402Z,5.40
2019-03-05T13:57:08.499Z,4.00
2019-03-05T13:59:44.406Z,7.13
2019-03-05T14:02:15.703Z,4.37
2019-03-05T14:04:59.525Z,3.83
2019-03-05T14:08:00.164Z,6.43
2019-03-05T14:10:28.841Z,4.43
2019-03-05T14:12:57.420Z,5.60
2019-03-05T14:15:26.414Z,5.73
2019-03-05T14:17:55.103Z,5.43
2019-03-05T14:20:31.561Z,5.40
2019-03-05T14:22:54.020Z,5.50
2019-03-05T14:25:22.569Z,3.83
2019-03-05T14:27:51.127Z,6.10
2019-03-05T14:30:21.376Z,4.80
2019-03-05T14:32:49.971Z,3.07
2019-03-05T14:35:19.670Z,5.93
2019-03-05T14:37:48.264Z,4.77
2019-03-05T14:40:25.809Z,7.77
2019-03-05T14:42:54.434Z,5.27
2019-03-05T14:45:25.982Z,6.57
2019-03-05T14:47:58.462Z,6.37
2019-03-05T14:50:27.043Z,4.57
2019-03-05T14:52:55.624Z,5.30
2019-03-05T14:55:24.147Z,5.03
2019-03-05T14:57:53.016Z,5.70
2019-03-05T15:00:22.396Z,6.27
2019-03-05T15:02:51.222Z,6.53
2019-03-05T15:05:19.967Z,4.83
2019-03-05T15:07:48.803Z,7.13
2019-03-05T15:10:17.545Z,7.07
2019-03-05T15:12:46.257Z,4.77
2019-03-05T15:15:17.994Z,4.73
2019-03-05T15:17:47.080Z,6.27
2019-03-05T15:20:15.801Z,5.43
2019-03-05T15:22:44.689Z,5.67
2019-03-05T15:25:15.078Z,4.67
2019-03-05T15:27:43.886Z,5.30
2019-03-05T15:30:15.260Z,5.93
2019-03-05T15:32:43.793Z,8.37
2019-03-05T15:35:12.587Z,5.00
2019-03-05T15:37:41.220Z,5.70
2019-03-05T15:40:12.512Z,5.50
2019-03-05T15:42:41.199Z,7.23
2019-03-05T15:45:12.417Z,9.40
2019-03-05T15:47:42.673Z,7.33
2019-03-05T15:50:14.634Z,7.47
2019-03-05T15:52:43.306Z,6.33
2019-03-05T15:55:14.094Z,6.27
2019-03-05T15:57:42.720Z,7.20
2019-03-05T16:00:17.249Z,15.20
2019-03-05T16:02:46.084Z,11.37
2019-03-05T16:05:16.629Z,8.63
2019-03-05T16:07:48.092Z,11.10
2019-03-05T16:10:18.451Z,11.17
2019-03-05T16:12:47.330Z,15.60
2019-03-05T16:15:18.607Z,18.43
2019-03-05T16:17:46.732Z,30.77
2019-03-05T16:20:17.458Z,15.97
2019-03-05T16:22:46.057Z,16.87
2019-03-05T16:25:22.269Z,13.20
2019-03-05T16:27:51.103Z,18.60
2019-03-05T16:30:46.130Z,15.50
2019-03-05T16:33:25.233Z,13.47
2019-03-05T16:36:13.036Z,13.17
2019-03-05T16:38:46.257Z,13.00
2019-03-05T16:41:25.797Z,12.60
2019-03-05T16:44:11.379Z,13.27
2019-03-05T16:46:44.785Z,12.97
2019-03-05T16:49:24.311Z,11.80
2019-03-05T16:51:54.849Z,13.43
2019-03-05T16:54:41.350Z,11.17
2019-03-05T16:57:11.776Z,10.50
2019-03-05T16:59:44.857Z,12.30
2019-03-05T17:02:21.340Z,9.87
2019-03-05T17:04:51.848Z,9.97
2019-03-05T17:07:40.094Z,8.40
2019-03-05T17:10:15.541Z,14.23
2019-03-05T17:12:44.225Z,12.13
2019-03-05T17:15:24.781Z,10.97
2019-03-05T17:17:53.671Z,15.90
2019-03-05T17:20:22.365Z,9.80
2019-03-05T17:22:50.937Z,10.33
2019-03-05T17:25:21.579Z,6.47
2019-03-05T17:27:50.147Z,11.47
2019-03-05T17:30:18.730Z,53.63
2019-03-05T17:32:47.517Z,68.63
2019-03-05T17:35:16.406Z,122.07
2019-03-05T17:37:45.409Z,134.40
2019-03-05T17:40:14.903Z,131.87
2019-03-05T17:42:43.588Z,124.40
2019-03-05T17:45:23.434Z,92.13
2019-03-05T17:47:52.426Z,139.67
2019-03-05T17:50:21.224Z,148.80
2019-03-05T17:52:50.103Z,126.60
2019-03-05T17:55:27.078Z,126.23
2019-03-05T17:57:54.643Z,128.03
2019-03-05T18:00:25.371Z,135.33
2019-03-05T18:02:54.325Z,124.73
2019-03-05T18:05:22.841Z,129.77
2019-03-05T18:07:51.634Z,168.27
2019-03-05T18:10:20.530Z,163.23
2019-03-05T18:12:49.113Z,147.53
2019-03-05T18:15:18.030Z,121.57
2019-03-05T18:17:46.717Z,125.23
2019-03-05T18:20:18.855Z,119.53
2019-03-05T18:22:47.834Z,126.07
2019-03-05T18:25:17.353Z,118.30
2019-03-05T18:27:46.494Z,220.17
2019-03-05T18:30:23.633Z,384.50
2019-03-05T18:32:52.507Z,447.00
2019-03-05T18:35:21.119Z,615.13
2019-03-05T18:37:49.780Z,650.27
2019-03-05T18:40:20.283Z,753.00
2019-03-05T18:42:49.056Z,785.47
2019-03-05T18:45:23.622Z,833.97
2019-03-05T18:47:52.495Z,1027.90
2019-03-05T18:50:21.806Z,1074.53
2019-03-05T18:52:52.488Z,1176.57
2019-03-05T18:55:22.547Z,1222.67
2019-03-05T18:57:51.129Z,1235.30
2019-03-05T19:00:27.417Z,1237.17
2019-03-05T19:02:58.021Z,1239.53
2019-03-05T19:05:26.719Z,1205.57
2019-03-05T19:07:55.596Z,1089.87
2019-03-05T19:10:27.553Z,929.07
2019-03-05T19:12:56.348Z,843.87
2019-03-05T19:15:26.213Z,822.70
2019-03-05T19:17:55.040Z,799.23
2019-03-05T19:20:29.149Z,802.63
2019-03-05T19:22:59.722Z,767.10
2019-03-05T19:25:29.322Z,759.33
2019-03-05T19:27:58.359Z,721.63
2019-03-05T19:30:38.329Z,598.80
2019-03-05T19:33:07.128Z,486.67
2019-03-05T19:35:35.805Z,429.57
2019-03-05T19:38:04.489Z,365.67
2019-03-05T19:40:44.581Z,376.70
2019-03-05T19:43:13.038Z,371.57
2019-03-05T19:45:41.574Z,372.30
2019-03-05T19:48:10.387Z,362.83
2019-03-05T19:50:38.884Z,361.20
2019-03-05T19:53:07.385Z,371.07
2019-03-05T19:55:36.340Z,350.57
2019-03-05T19:58:17.312Z,348.83
2019-03-05T20:01:11.390Z,351.97
2019-03-05T20:03:40.075Z,353.33
2019-03-05T20:06:08.761Z,335.90
2019-03-05T20:08:40.128Z,334.97
2019-03-05T20:11:07.979Z,341.93
2019-03-05T20:13:36.869Z,319.43
2019-03-05T20:16:06.559Z,326.73
2019-03-05T20:18:35.254Z,322.63
2019-03-05T20:21:05.346Z,314.10
2019-03-05T20:23:34.983Z,312.43
2019-03-05T20:26:03.899Z,306.93
2019-03-05T20:28:32.542Z,312.00
2019-03-05T20:31:01.139Z,297.60
2019-03-05T20:33:29.719Z,297.27
2019-03-05T20:35:58.386Z,285.57
2019-03-05T20:38:26.853Z,290.10
2019-03-05T20:40:55.391Z,271.00
2019-03-05T20:43:23.929Z,271.17
2019-03-05T20:45:55.804Z,273.43
2019-03-05T20:48:24.486Z,269.93
2019-03-05T20:50:53.358Z,257.90
2019-03-05T20:53:21.957Z,253.50
2019-03-05T20:55:50.558Z,256.40
2019-03-05T20:58:19.223Z,251.77
2019-03-05T21:00:47.907Z,241.20
2019-03-05T21:03:16.590Z,247.60
2019-03-05T21:05:49.077Z,210.57
2019-03-05T21:08:20.709Z,174.40
2019-03-05T21:10:51.267Z,174.30
2019-03-05T21:13:20.038Z,161.47
2019-03-05T21:15:48.724Z,160.77
2019-03-05T21:18:19.472Z,152.40
2019-03-05T21:20:48.585Z,153.73
2019-03-05T21:23:17.524Z,151.77
2019-03-05T21:25:46.325Z,145.17
2019-03-05T21:28:14.907Z,144.80
2019-03-05T21:30:43.420Z,148.53
2019-03-05T21:33:12.070Z,145.50
2019-03-05T21:35:40.757Z,147.43
2019-03-05T21:38:09.533Z,142.43
2019-03-05T21:40:38.193Z,137.20
2019-03-05T21:43:06.913Z,136.30
2019-03-05T21:45:38.770Z,140.33
2019-03-05T21:48:07.498Z,131.13
2019-03-05T21:50:36.039Z,130.00
2019-03-05T21:53:05.033Z,129.73
2019-03-05T21:55:35.434Z,128.47
2019-03-05T21:58:04.301Z,136.53
2019-03-05T22:00:34.051Z,125.93
2019-03-05T22:03:02.998Z,111.30
2019-03-05T22:05:32.557Z,100.60
2019-03-05T22:08:01.080Z,99.70
2019-03-05T22:10:30.383Z,88.70
2019-03-05T22:12:59.221Z,91.53
2019-03-05T22:15:28.930Z,73.63
2019-03-05T22:17:57.719Z,63.13
2019-03-05T22:20:26.398Z,66.33
2019-03-05T22:22:54.982Z,58.03
2019-03-05T22:25:24.636Z,58.17
2019-03-05T22:27:53.293Z,52.23
2019-03-05T22:30:28.004Z,48.10
2019-03-05T22:32:56.681Z,41.13
2019-03-05T22:35:25.670Z,40.40
2019-03-05T22:37:54.356Z,39.43
2019-03-05T22:40:27.137Z,33.30
2019-03-05T22:42:55.823Z,31.97
2019-03-05T22:45:33.112Z,33.80
2019-03-05T22:48:01.804Z,27.33
2019-03-05T22:50:30.363Z,25.63
2019-03-05T22:52:59.264Z,23.93
2019-03-05T22:55:28.050Z,23.60
2019-03-05T22:57:57.060Z,24.10
2019-03-05T23:00:51.621Z,20.83
2019-03-05T23:03:23.379Z,17.03
2019-03-05T23:05:52.168Z,16.53
2019-03-05T23:08:21.674Z,18.07
2019-03-05T23:10:50.362Z,12.97
2019-03-05T23:13:18.949Z,15.60
2019-03-05T23:15:47.844Z,15.07
2019-03-05T23:18:16.937Z,12.80
2019-03-05T23:20:45.512Z,15.47
2019-03-05T23:23:14.202Z,11.37
2019-03-05T23:25:42.782Z,10.70
2019-03-05T23:28:11.466Z,12.30
2019-03-05T23:30:40.362Z,9.47
2019-03-05T23:33:09.041Z,11.43
2019-03-05T23:35:38.441Z,8.33
2019-03-05T23:38:07.007Z,11.90
2019-03-05T23:40:35.617Z,7.87
2019-03-05T23:43:04.495Z,8.67
2019-03-05T23:45:33.076Z,8.80
2019-03-05T23:48:01.764Z,6.70
2019-03-05T23:50:30.289Z,9.33
2019-03-05T23:52:58.925Z,6.03
2019-03-05T23:55:27.917Z,10.40
2019-03-05T23:57:56.499Z,8.33
